Time;durP1;ratioP1;P1;durP2;ratioP2;P2;SDS_P1;SDS_P2;PMS_P1;PMS_P2;Temp;Humidity;BMP_temperature;BMP_pressure;BME280_temperature;BME280_humidity;BME280_pressure;Samples;Min_cycle;Max_cycle;Signal;HPM_P1;HPM_P2
2021/09/19 00:00:37;;;;;;;0.60;0.60;;;;;;;;;;4847196;28;20244;-75
2021/09/19 00:02:59;;;;;;;0.00;0.00;;;;;;;;;;4850445;28;20626;-76
2021/09/19 00:05:23;;;;;;;0.10;0.10;;;11.20;44.60;;;;;;4848461;28;20198;-74
2021/09/19 00:07:46;;;;;;;0.00;0.00;;;;;;;;;;4846349;28;20187;-77
2021/09/19 00:10:09;;;;;;;0.07;0.07;;;11.10;44.90;;;;;;4846842;28;20194;-75
2021/09/19 00:12:33;;;;;;;0.13;0.13;;;11.10;44.80;;;;;;4848973;28;20924;-75
2021/09/19 00:14:55;;;;;;;0.20;0.20;;;;;;;;;;4849915;28;20232;-76
2021/09/19 00:17:18;;;;;;;0.10;0.10;;;;;;;;;;4849781;28;20181;-75
2021/09/19 00:19:41;;;;;;;0.03;0.03;;;;;;;;;;4846705;28;20229;-76
2021/09/19 00:22:05;;;;;;;0.10;0.10;;;11.10;44.30;;;;;;4848606;28;20251;-76
2021/09/19 00:24:27;;;;;;;0.10;0.10;;;;;;;;;;4862614;28;20247;-75
2021/09/19 00:26:50;;;;;;;0.00;0.00;;;;;;;;;;4849843;28;20295;-78
2021/09/19 00:29:13;;;;;;;0.10;0.10;;;;;;;;;;4848389;28;20623;-76
2021/09/19 00:31:35;;;;;;;0.10;0.10;;;;;;;;;;4854283;28;20198;-78
2021/09/19 00:33:58;;;;;;;0.20;0.20;;;;;;;;;;4846790;28;20527;-76
2021/09/19 00:36:21;;;;;;;0.10;0.10;;;;;;;;;;4846924;28;20244;-74
2021/09/19 00:38:47;;;;;;;0.10;0.10;;;11.00;44.40;;;;;;4846896;28;20245;-76
2021/09/19 00:41:10;;;;;;;0.00;0.00;;;;;;;;;;4846356;28;20222;-76
2021/09/19 00:43:33;;;;;;;0.13;0.13;;;;;;;;;;4848251;28;20569;-77
2021/09/19 00:45:55;;;;;;;0.10;0.10;;;;;;;;;;4847886;28;20187;-77
2021/09/19 00:48:18;;;;;;;0.00;0.00;;;;;;;;;;4848884;28;20240;-76
2021/09/19 00:50:40;;;;;;;0.00;0.00;;;11.40;44.10;;;;;;4846190;28;20554;-76
2021/09/19 00:53:03;;;;;;;0.10;0.10;;;;;;;;;;4846447;28;20182;-76
2021/09/19 00:55:27;;;;;;;0.10;0.10;;;11.00;44.50;;;;;;4848309;28;20190;-76
2021/09/19 00:57:53;;;;;;;0.20;0.20;;;11.00;44.50;;;;;;4848648;28;20263;-76
2021/09/19 01:00:19;;;;;;;0.20;0.20;;;11.00;44.10;;;;;;4863410;28;20663;-77
2021/09/19 01:02:42;;;;;;;0.10;0.10;;;11.00;44.40;;;;;;4846746;28;20230;-76
2021/09/19 01:05:05;;;;;;;0.13;0.13;;;;;;;;;;4845938;28;20237;-76
2021/09/19 01:07:28;;;;;;;0.10;0.10;;;11.00;44.20;;;;;;4846531;28;20328;-77
2021/09/19 01:09:52;;;;;;;0.13;0.13;;;11.00;44.10;;;;;;4842647;28;20191;-77
2021/09/19 01:12:20;;;;;;;0.03;0.03;;;11.00;44.30;;;;;;4849748;28;20265;-76
2021/09/19 01:14:43;;;;;;;0.20;0.20;;;;;;;;;;4844808;28;20238;-76
2021/09/19 01:17:06;;;;;;;0.10;0.10;;;10.80;43.70;;;;;;4845731;28;20240;-77
2021/09/19 01:19:29;;;;;;;0.10;0.10;;;;;;;;;;4847209;28;20191;-78
2021/09/19 01:21:52;;;;;;;0.10;0.10;;;11.00;44.00;;;;;;4849768;28;20218;-76
2021/09/19 01:24:16;;;;;;;0.20;0.20;;;10.90;44.30;;;;;;4847439;28;20240;-78
2021/09/19 01:26:39;;;;;;;0.10;0.10;;;;;;;;;;4846901;28;20220;-76
2021/09/19 01:29:02;;;;;;;0.00;0.00;;;;;;;;;;4849179;28;20218;-75
2021/09/19 01:31:25;;;;;;;0.10;0.10;;;10.90;44.40;;;;;;4846197;28;20656;-75
2021/09/19 01:33:48;;;;;;;0.10;0.10;;;;;;;;;;4846757;28;20239;-76
2021/09/19 01:36:10;;;;;;;0.10;0.10;;;;;;;;;;4848362;28;20538;-77
2021/09/19 01:38:33;;;;;;;0.10;0.10;;;10.90;43.90;;;;;;4839673;28;20191;-76
2021/09/19 01:40:57;;;;;;;0.00;0.00;;;10.90;44.20;;;;;;4849218;28;20267;-75
2021/09/19 01:43:19;;;;;;;0.10;0.10;;;;;;;;;;4845915;28;20672;-74
2021/09/19 01:45:42;;;;;;;0.17;0.17;;;;;;;;;;4845009;28;20191;-78
2021/09/19 01:48:05;;;;;;;0.10;0.10;;;10.90;45.30;;;;;;4845463;28;20609;-76
2021/09/19 01:50:28;;;;;;;0.00;0.00;;;11.50;45.50;;;;;;4845310;28;20199;-76
2021/09/19 01:52:51;;;;;;;0.00;0.00;;;;;;;;;;4848526;28;20257;-77
2021/09/19 01:55:13;;;;;;;0.10;0.10;;;;;;;;;;4850168;28;20196;-77
2021/09/19 01:57:37;;;;;;;0.10;0.10;;;10.60;46.00;;;;;;4846113;28;20187;-75
2021/09/19 02:00:00;;;;;;;0.10;0.10;;;;;;;;;;4860485;28;20600;-75
2021/09/19 02:02:22;;;;;;;0.10;0.10;;;;;;;;;;4843689;28;20238;-75
2021/09/19 02:04:45;;;;;;;0.10;0.10;;;;;;;;;;4845398;28;20186;-80
2021/09/19 02:07:08;;;;;;;0.10;0.10;;;;;;;;;;4845397;28;20187;-77
2021/09/19 02:09:30;;;;;;;0.10;0.10;;;;;;;;;;4850290;28;20190;-77
2021/09/19 02:11:53;;;;;;;0.10;0.10;;;;;;;;;;4845379;28;20187;-77
2021/09/19 02:14:17;;;;;;;0.10;0.10;;;10.00;46.00;;;;;;4846531;28;20190;-76
2021/09/19 02:16:39;;;;;;;0.17;0.17;;;;;;;;;;4851443;28;20183;-75
2021/09/19 02:19:02;;;;;;;0.10;0.10;;;;;;;;;;4851421;28;20198;-75
2021/09/19 02:21:25;;;;;;;0.03;0.03;;;9.90;46.10;;;;;;4849970;28;20214;-80
2021/09/19 02:23:48;;;;;;;0.13;0.13;;;;;;;;;;4851718;28;20259;-76
2021/09/19 02:26:10;;;;;;;0.10;0.10;;;;;;;;;;4846823;28;20267;-78
2021/09/19 02:28:33;;;;;;;0.00;0.00;;;;;;;;;;4846164;28;20214;-75
2021/09/19 02:30:57;;;;;;;0.10;0.10;;;9.70;46.60;;;;;;4850077;28;20245;-78
2021/09/19 02:33:20;;;;;;;0.10;0.10;;;9.60;46.40;;;;;;4849222;28;20179;-74
2021/09/19 02:35:42;;;;;;;0.20;0.20;;;;;;;;;;4859740;28;20189;-78
2021/09/19 02:38:05;;;;;;;0.20;0.20;;;;;;;;;;4858721;28;20251;-77
2021/09/19 02:40:28;;;;;;;0.10;0.10;;;;;;;;;;4849370;28;20236;-77
2021/09/19 02:42:52;;;;;;;0.10;0.10;;;9.40;46.30;;;;;;4851613;28;20189;-79
2021/09/19 02:45:15;;;;;;;0.13;0.13;;;;;;;;;;4851559;28;20186;-75
2021/09/19 02:47:39;;;;;;;0.20;0.20;;;9.30;46.30;;;;;;4853712;28;20189;-77
2021/09/19 02:50:02;;;;;;;0.10;0.10;;;;;;;;;;4847529;28;20330;-76
2021/09/19 02:52:24;;;;;;;0.13;0.13;;;;;;;;;;4852352;28;20190;-75
2021/09/19 02:54:47;;;;;;;0.10;0.10;;;;;;;;;;4848767;28;20190;-76
2021/09/19 02:57:10;;;;;;;0.13;0.13;;;;;;;;;;4850397;28;20206;-78
2021/09/19 02:59:32;;;;;;;0.20;0.20;;;9.20;46.40;;;;;;4848772;28;20190;-78
2021/09/19 03:01:55;;;;;;;0.17;0.17;;;;;;;;;;4845383;28;20288;-78
2021/09/19 03:04:18;;;;;;;0.20;0.20;;;9.10;46.20;;;;;;4850793;28;20597;-78
2021/09/19 03:06:41;;;;;;;0.20;0.20;;;;;;;;;;4848296;28;20191;-75
2021/09/19 03:09:04;;;;;;;0.10;0.10;;;;;;;;;;4847690;28;20183;-79
2021/09/19 03:11:26;;;;;;;0.10;0.10;;;;;;;;;;4842621;28;20240;-78
2021/09/19 03:13:49;;;;;;;0.10;0.10;;;;;;;;;;4851007;28;20182;-79
2021/09/19 03:16:11;;;;;;;0.00;0.00;;;9.10;46.10;;;;;;4851011;28;20193;-79
2021/09/19 03:18:34;;;;;;;0.17;0.17;;;;;;;;;;4846082;28;20668;-81
2021/09/19 03:20:58;;;;;;;0.00;0.00;;;9.00;46.10;;;;;;4850697;28;20209;-80
2021/09/19 03:23:20;;;;;;;0.20;0.20;;;;;;;;;;4848223;28;20194;-80
2021/09/19 03:25:43;;;;;;;0.10;0.10;;;9.00;46.20;;;;;;4846678;28;20281;-80
2021/09/19 03:28:05;;;;;;;0.20;0.20;;;9.00;46.10;;;;;;4853064;28;20190;-81
2021/09/19 03:30:28;;;;;;;0.10;0.10;;;;;;;;;;4845600;28;20273;-83
2021/09/19 03:32:51;;;;;;;0.10;0.10;;;;;;;;;;4853081;28;20202;-81
2021/09/19 03:35:14;;;;;;;0.10;0.10;;;9.10;46.40;;;;;;4850477;28;20194;-79
2021/09/19 03:37:38;;;;;;;0.17;0.17;;;9.00;46.10;;;;;;4848899;28;20190;-78
2021/09/19 03:40:01;;;;;;;0.10;0.10;;;;;;;;;;4848039;28;20197;-83
2021/09/19 03:42:23;;;;;;;0.20;0.20;;;;;;;;;;4849268;28;20623;-74
2021/09/19 03:44:47;;;;;;;0.20;0.20;;;;;;;;;;4847842;28;20179;-80
2021/09/19 03:47:09;;;;;;;0.10;0.10;;;8.80;46.10;;;;;;4863403;28;20593;-81
2021/09/19 03:49:32;;;;;;;0.13;0.13;;;8.90;46.10;;;;;;4842598;28;20676;-78
2021/09/19 03:51:55;;;;;;;0.20;0.20;;;8.80;46.10;;;;;;4850335;28;20232;-80
2021/09/19 03:54:19;;;;;;;0.10;0.10;;;8.80;46.10;;;;;;4850060;28;20186;-78
2021/09/19 03:56:42;;;;;;;0.20;0.20;;;;;;;;;;4854562;28;20187;-78
2021/09/19 03:59:04;;;;;;;0.20;0.20;;;;;;;;;;4852828;28;20197;-79
2021/09/19 04:01:27;;;;;;;0.10;0.10;;;;;;;;;;4850364;28;20229;-78
2021/09/19 04:03:49;;;;;;;0.20;0.20;;;9.00;46.40;;;;;;4849667;28;20224;-75
2021/09/19 04:06:12;;;;;;;0.20;0.20;;;;;;;;;;4850275;28;20233;-76
2021/09/19 04:08:35;;;;;;;0.30;0.30;;;;;;;;;;4841276;28;20179;-78
2021/09/19 04:10:58;;;;;;;0.10;0.10;;;9.00;46.20;;;;;;4845892;28;20244;-76
2021/09/19 04:13:21;;;;;;;0.20;0.20;;;9.30;46.30;;;;;;4862950;28;20636;-78
2021/09/19 04:15:44;;;;;;;0.20;0.20;;;;;;;;;;4847720;28;20194;-77
2021/09/19 04:18:06;;;;;;;0.10;0.10;;;;;;;;;;4846835;28;20195;-76
2021/09/19 04:20:29;;;;;;;0.20;0.20;;;;;;;;;;4848162;28;20729;-76
2021/09/19 04:22:51;;;;;;;0.20;0.20;;;;;;;;;;4846535;28;21066;-77
2021/09/19 04:25:14;;;;;;;0.10;0.10;;;;;;;;;;4841578;28;20241;-78
2021/09/19 04:27:38;;;;;;;0.10;0.10;;;9.10;46.00;;;;;;4855390;28;20236;-74
2021/09/19 04:30:01;;;;;;;0.13;0.13;;;;;;;;;;4854593;28;20222;-75
2021/09/19 04:32:24;;;;;;;0.10;0.10;;;;;;;;;;4842186;28;20278;-75
2021/09/19 04:34:46;;;;;;;0.20;0.20;;;9.10;46.00;;;;;;4849820;28;20198;-78
2021/09/19 04:37:13;;;;;;;0.10;0.10;;;;;;;;;;4845310;28;20652;-75
2021/09/19 04:39:36;;;;;;;0.10;0.10;;;;;;;;;;4846607;28;20257;-76
2021/09/19 04:41:58;;;;;;;0.10;0.10;;;;;;;;;;4849393;28;20217;-75
2021/09/19 04:44:22;;;;;;;0.20;0.20;;;9.10;46.00;;;;;;4848879;28;20233;-77
2021/09/19 04:46:45;;;;;;;0.10;0.10;;;;;;;;;;4842533;28;20186;-76
2021/09/19 04:49:07;;;;;;;0.20;0.20;;;;;;;;;;4847336;28;20201;-78
2021/09/19 04:51:30;;;;;;;0.10;0.10;;;;;;;;;;4844548;28;20537;-76
2021/09/19 04:53:53;;;;;;;0.10;0.10;;;;;;;;;;4849256;28;20648;-78
2021/09/19 04:56:15;;;;;;;0.10;0.10;;;;;;;;;;4847316;28;20835;-76
2021/09/19 04:58:38;;;;;;;0.20;0.20;;;;;;;;;;4847578;28;20195;-76
2021/09/19 05:01:01;;;;;;;0.10;0.10;;;9.10;46.10;;;;;;4847155;28;20613;-78
2021/09/19 05:03:24;;;;;;;0.20;0.20;;;;;;;;;;4848215;28;20210;-76
2021/09/19 05:05:47;;;;;;;0.10;0.10;;;;;;;;;;4849523;28;20194;-79
2021/09/19 05:08:09;;;;;;;0.10;0.10;;;;;;;;;;4845730;28;20198;-78
2021/09/19 05:10:32;;;;;;;0.10;0.10;;;9.10;45.90;;;;;;4847518;28;20594;-82
2021/09/19 05:12:54;;;;;;;0.20;0.20;;;;;;;;;;4848901;28;20198;-75
2021/09/19 05:15:17;;;;;;;0.17;0.17;;;9.10;46.00;;;;;;4843363;28;20198;-79
2021/09/19 05:17:40;;;;;;;0.10;0.10;;;9.10;46.00;;;;;;4843989;28;20182;-78
2021/09/19 05:20:04;;;;;;;0.10;0.10;;;9.10;45.90;;;;;;4850441;28;20186;-77
2021/09/19 05:22:27;;;;;;;0.10;0.10;;;;;;;;;;4849475;28;20202;-78
2021/09/19 05:24:49;;;;;;;0.10;0.10;;;9.10;46.00;;;;;;4849277;28;20644;-75
2021/09/19 05:27:12;;;;;;;0.20;0.20;;;;;;;;;;4856004;28;20238;-76
2021/09/19 05:29:34;;;;;;;0.10;0.10;;;9.20;46.10;;;;;;4857028;28;20683;-79
2021/09/19 05:31:57;;;;;;;0.10;0.10;;;;;;;;;;4854338;28;20202;-79
2021/09/19 05:34:21;;;;;;;0.20;0.20;;;9.20;46.30;;;;;;4857449;28;20734;-77
2021/09/19 05:36:43;;;;;;;0.00;0.00;;;;;;;;;;4857342;28;20189;-78
2021/09/19 05:39:06;;;;;;;0.10;0.10;;;;;;;;;;4857679;28;20794;-75
2021/09/19 05:41:29;;;;;;;0.10;0.10;;;;;;;;;;4858617;28;20554;-79
2021/09/19 05:43:51;;;;;;;0.20;0.20;;;9.30;46.40;;;;;;4853345;28;20202;-77
2021/09/19 05:46:16;;;;;;;0.10;0.10;;;9.30;46.40;;;;;;4849067;28;20202;-75
2021/09/19 05:48:39;;;;;;;0.20;0.20;;;9.30;46.40;;;;;;4851166;28;20179;-75
2021/09/19 05:51:04;;;;;;;0.17;0.17;;;9.40;46.50;;;;;;4847447;28;20194;-78
2021/09/19 05:53:26;;;;;;;0.10;0.10;;;9.40;46.50;;;;;;4850335;28;20206;-76
2021/09/19 05:55:49;;;;;;;0.00;0.00;;;9.40;46.50;;;;;;4844851;28;20198;-75
2021/09/19 05:58:11;;;;;;;0.20;0.20;;;9.40;46.50;;;;;;4841961;28;20196;-74
2021/09/19 06:00:33;;;;;;;0.10;0.10;;;9.50;46.50;;;;;;4849570;28;20626;-75
2021/09/19 06:02:56;;;;;;;0.10;0.10;;;9.50;46.60;;;;;;4855372;28;20230;-76
2021/09/19 06:05:18;;;;;;;0.20;0.20;;;9.60;46.60;;;;;;4854990;28;20205;-75
2021/09/19 06:07:42;;;;;;;0.10;0.10;;;9.60;46.70;;;;;;4835395;28;20213;-79
2021/09/19 06:10:07;;;;;;;0.10;0.10;;;9.60;46.70;;;;;;4835366;28;20209;-74
2021/09/19 06:12:29;;;;;;;0.10;0.10;;;9.60;46.70;;;;;;4856121;28;20194;-75
2021/09/19 06:14:53;;;;;;;0.20;0.20;;;9.70;46.70;;;;;;4855910;28;20236;-79
2021/09/19 06:17:16;;;;;;;0.10;0.10;;;;;;;;;;4854931;28;20201;-80
2021/09/19 06:19:39;;;;;;;0.13;0.13;;;;;;;;;;4856232;28;20190;-76
2021/09/19 06:22:02;;;;;;;0.10;0.10;;;9.80;46.80;;;;;;4854830;28;20193;-80
2021/09/19 06:24:28;;;;;;;0.20;0.20;;;9.90;46.80;;;;;;4855647;28;20647;-78
2021/09/19 06:26:51;;;;;;;0.17;0.17;;;;;;;;;;4850330;28;20287;-75
2021/09/19 06:29:13;;;;;;;0.10;0.10;;;;;;;;;;4837962;28;20829;-79
2021/09/19 06:31:36;;;;;;;0.10;0.10;;;9.90;46.90;;;;;;4854208;28;20236;-78
2021/09/19 06:33:58;;;;;;;0.07;0.07;;;;;;;;;;4836139;28;20202;-76
2021/09/19 06:36:21;;;;;;;0.20;0.20;;;9.80;46.80;;;;;;4853209;28;20186;-79
2021/09/19 06:38:43;;;;;;;0.10;0.10;;;;;;;;;;4854279;28;20565;-78
2021/09/19 06:41:07;;;;;;;0.10;0.10;;;9.80;46.90;;;;;;4840110;28;20206;-80
2021/09/19 06:43:30;;;;;;;0.00;0.00;;;;;;;;;;4836972;28;20260;-80
2021/09/19 06:45:52;;;;;;;0.13;0.13;;;9.70;46.80;;;;;;4849152;28;20190;-78
2021/09/19 06:48:15;;;;;;;0.10;0.10;;;;;;;;;;4854183;28;20591;-79
2021/09/19 06:50:38;;;;;;;0.10;0.10;;;;;;;;;;4846168;28;20187;-79
2021/09/19 06:53:02;;;;;;;0.10;0.10;;;;;;;;;;4836052;28;20261;-82
2021/09/19 06:55:24;;;;;;;0.10;0.10;;;9.90;47.00;;;;;;4837941;28;20191;-79
2021/09/19 06:57:54;;;;;;;0.10;0.10;;;9.80;46.90;;;;;;4837587;28;20594;-78
2021/09/19 07:00:17;;;;;;;0.10;0.10;;;9.80;46.90;;;;;;4847104;28;20731;-80
2021/09/19 07:02:40;;;;;;;0.10;0.10;;;;;;;;;;4867269;28;20240;-81
2021/09/19 07:05:04;;;;;;;0.10;0.10;;;9.80;46.80;;;;;;4853765;28;20217;-83
2021/09/19 07:07:27;;;;;;;0.20;0.20;;;;;;;;;;4852457;28;20249;-78
2021/09/19 07:09:49;;;;;;;0.17;0.17;;;;;;;;;;4856083;28;20194;-77
2021/09/19 07:12:12;;;;;;;0.10;0.10;;;;;;;;;;4848830;28;20253;-81
2021/09/19 07:14:36;;;;;;;0.10;0.10;;;10.10;46.80;;;;;;4850414;28;20202;-80
2021/09/19 07:16:58;;;;;;;0.10;0.10;;;;;;;;;;4852793;28;20182;-81
2021/09/19 07:19:21;;;;;;;0.20;0.20;;;;;;;;;;4854259;28;20190;-79
2021/09/19 07:21:44;;;;;;;0.10;0.10;;;;;;;;;;4846337;28;20586;-79
2021/09/19 07:24:06;;;;;;;0.10;0.10;;;;;;;;;;4848004;28;20214;-81
2021/09/19 07:26:29;;;;;;;0.10;0.10;;;;;;;;;;4849215;28;20688;-81
2021/09/19 07:28:52;;;;;;;0.10;0.10;;;10.90;47.20;;;;;;4849239;28;20214;-80
2021/09/19 07:31:16;;;;;;;0.10;0.10;;;10.90;47.50;;;;;;4858712;28;20199;-79
2021/09/19 07:33:39;;;;;;;0.10;0.10;;;11.00;47.50;;;;;;4848297;28;20206;-78
2021/09/19 07:36:02;;;;;;;0.00;0.00;;;11.10;47.60;;;;;;4852643;28;20186;-76
2021/09/19 07:38:25;;;;;;;0.03;0.03;;;11.50;47.60;;;;;;4847819;28;20194;-82
2021/09/19 07:40:48;;;;;;;0.00;0.00;;;11.50;48.00;;;;;;4850484;28;20194;-78
2021/09/19 07:43:11;;;;;;;0.10;0.10;;;;;;;;;;4856777;28;20284;-81
2021/09/19 07:45:34;;;;;;;0.00;0.00;;;11.50;48.10;;;;;;4852562;28;20197;-74
2021/09/19 07:47:59;;;;;;;0.00;0.00;;;11.60;48.20;;;;;;4854120;28;20202;-79
2021/09/19 07:50:22;;;;;;;0.00;0.00;;;11.60;48.10;;;;;;4850959;28;20193;-80
2021/09/19 07:52:44;;;;;;;0.00;0.00;;;11.50;48.30;;;;;;4848049;28;20194;-79
2021/09/19 07:55:11;;;;;;;0.13;0.13;;;11.60;48.10;;;;;;4845295;28;20240;-75
2021/09/19 07:57:34;;;;;;;0.00;0.00;;;11.80;48.10;;;;;;4855767;28;20206;-75
2021/09/19 07:59:57;;;;;;;0.10;0.10;;;12.50;48.40;;;;;;4853703;28;20674;-76
2021/09/19 08:02:20;;;;;;;0.00;0.00;;;;;;;;;;4853467;28;20233;-78
2021/09/19 08:04:44;;;;;;;0.00;0.00;;;12.90;49.50;;;;;;4847815;28;20218;-79
2021/09/19 08:07:07;;;;;;;0.10;0.10;;;;;;;;;;4842072;28;20195;-82
2021/09/19 08:09:30;;;;;;;0.00;0.00;;;;;;;;;;4846560;28;20242;-82
2021/09/19 08:11:54;;;;;;;0.10;0.10;;;;;;;;;;4846279;28;20198;-77
2021/09/19 08:14:16;;;;;;;0.03;0.03;;;;;;;;;;4845477;28;20190;-77
2021/09/19 08:16:41;;;;;;;0.00;0.00;;;13.90;50.70;;;;;;4853709;28;20668;-80
2021/09/19 08:19:03;;;;;;;0.03;0.03;;;14.00;51.00;;;;;;4844119;28;20194;-79
2021/09/19 08:21:29;;;;;;;0.00;0.00;;;14.00;51.00;;;;;;4850044;28;20703;-73
2021/09/19 08:23:56;;;;;;;0.10;0.10;;;;;;;;;;4854567;28;20828;-73
2021/09/19 08:26:20;;;;;;;0.00;0.00;;;;;;;;;;4842229;28;20226;-74
2021/09/19 08:28:43;;;;;;;0.00;0.00;;;;;;;;;;4843441;28;20203;-76
2021/09/19 08:31:07;;;;;;;0.00;0.00;;;14.70;51.50;;;;;;4851662;28;20195;-75
2021/09/19 08:33:34;;;;;;;0.00;0.00;;;15.10;51.80;;;;;;4845871;28;20187;-73
2021/09/19 08:35:59;;;;;;;0.00;0.00;;;15.00;51.90;;;;;;4869760;28;20206;-79
2021/09/19 08:38:25;;;;;;;0.00;0.00;;;15.20;52.30;;;;;;4846614;28;20187;-75
2021/09/19 08:40:50;;;;;;;0.00;0.00;;;15.20;52.50;;;;;;4857575;28;20293;-72
2021/09/19 08:43:12;;;;;;;0.00;0.00;;;15.30;52.60;;;;;;4856847;28;20832;-75
2021/09/19 08:46:04;;;;;;;0.00;0.00;;;15.40;52.80;;;;;;4854229;28;20232;-73
2021/09/19 08:48:32;;;;;;;0.10;0.10;;;15.60;52.80;;;;;;4841765;28;20209;-79
2021/09/19 08:51:01;;;;;;;0.00;0.00;;;15.80;53.20;;;;;;4846888;28;20205;-77
2021/09/19 08:53:34;;;;;;;0.00;0.00;;;15.70;53.10;;;;;;4864880;28;20190;-82
2021/09/19 08:56:01;;;;;;;0.00;0.00;;;15.60;52.90;;;;;;4848662;28;20177;-72
2021/09/19 08:58:25;;;;;;;0.10;0.10;;;15.90;53.20;;;;;;4854388;28;20194;-81
2021/09/19 09:00:49;;;;;;;0.07;0.07;;;15.90;53.60;;;;;;4839437;28;20199;-72
2021/09/19 09:03:13;;;;;;;0.00;0.00;;;15.80;53.60;;;;;;4852881;28;20232;-73
2021/09/19 09:05:37;;;;;;;0.07;0.07;;;;;;;;;;4847626;28;20206;-75
2021/09/19 09:08:00;;;;;;;0.10;0.10;;;16.40;54.00;;;;;;4843104;28;20190;-73
2021/09/19 09:10:39;;;;;;;0.00;0.00;;;16.40;54.00;;;;;;4846768;28;20216;-72
2021/09/19 09:13:09;;;;;;;0.00;0.00;;;17.00;54.70;;;;;;4852231;28;20192;-76
2021/09/19 09:15:35;;;;;;;0.00;0.00;;;16.90;54.60;;;;;;4848198;28;20208;-74
2021/09/19 09:17:58;;;;;;;0.00;0.00;;;17.10;54.90;;;;;;4851849;28;20198;-72
2021/09/19 09:20:22;;;;;;;0.00;0.00;;;17.10;54.80;;;;;;4850311;28;20214;-79
2021/09/19 09:22:46;;;;;;;0.10;0.10;;;17.10;54.90;;;;;;4848326;28;20288;-78
2021/09/19 09:25:13;;;;;;;0.10;0.10;;;17.10;55.10;;;;;;4844372;28;20213;-79
2021/09/19 09:27:56;;;;;;;0.00;0.00;;;17.30;55.40;;;;;;4839200;28;20201;-75
2021/09/19 09:30:22;;;;;;;0.00;0.00;;;17.10;55.20;;;;;;4821700;28;20516;-86
2021/09/19 09:32:54;;;;;;;0.00;0.00;;;17.00;55.10;;;;;;4851931;28;20186;-81
2021/09/19 09:35:17;;;;;;;0.00;0.00;;;16.70;54.90;;;;;;4859089;28;20187;-80
2021/09/19 09:37:41;;;;;;;0.00;0.00;;;;;;;;;;4848802;28;20194;-82
2021/09/19 09:40:15;;;;;;;0.00;0.00;;;16.00;54.40;;;;;;4854420;28;20189;-83
2021/09/19 09:42:39;;;;;;;0.00;0.00;;;16.00;54.40;;;;;;4842763;28;20269;-76
2021/09/19 09:45:10;;;;;;;0.00;0.00;;;15.70;54.20;;;;;;4848312;28;20269;-83
2021/09/19 09:47:35;;;;;;;0.00;0.00;;;;;;;;;;4847526;28;20183;-75
2021/09/19 09:49:58;;;;;;;0.00;0.00;;;15.70;54.00;;;;;;4846906;28;20272;-72
2021/09/19 09:52:23;;;;;;;0.10;0.10;;;16.40;54.30;;;;;;4845015;28;20540;-73
2021/09/19 09:54:48;;;;;;;0.07;0.07;;;16.40;54.30;;;;;;4845995;28;20548;-72
2021/09/19 09:57:11;;;;;;;0.00;0.00;;;17.00;54.70;;;;;;4847714;28;20198;-76
2021/09/19 09:59:34;;;;;;;0.00;0.00;;;17.10;54.70;;;;;;4846976;28;20202;-73
2021/09/19 10:02:01;;;;;;;0.00;0.00;;;17.10;55.10;;;;;;4852887;28;20706;-75
2021/09/19 10:04:24;;;;;;;0.10;0.10;;;16.40;54.30;;;;;;4848339;28;20254;-75
2021/09/19 10:06:48;;;;;;;0.10;0.10;;;16.60;54.60;;;;;;4846015;28;20277;-74
2021/09/19 10:09:12;;;;;;;0.00;0.00;;;15.50;53.80;;;;;;4848607;28;20241;-73
2021/09/19 10:11:37;;;;;;;0.00;0.00;;;15.80;54.00;;;;;;4856739;28;20270;-72
2021/09/19 10:14:00;;;;;;;0.10;0.10;;;15.50;53.90;;;;;;4849642;28;20193;-82
2021/09/19 10:16:23;;;;;;;0.00;0.00;;;15.30;53.30;;;;;;4850321;28;20555;-72
2021/09/19 10:18:49;;;;;;;0.00;0.00;;;14.50;52.90;;;;;;4853645;28;20282;-83
2021/09/19 10:21:12;;;;;;;0.00;0.00;;;;;;;;;;4845409;28;20705;-87
2021/09/19 10:23:38;;;;;;;0.00;0.00;;;14.70;52.90;;;;;;4861087;28;20224;-85
2021/09/19 10:26:07;;;;;;;0.03;0.03;;;14.70;52.90;;;;;;4847681;28;20237;-78
2021/09/19 10:28:39;;;;;;;0.00;0.00;;;14.80;52.90;;;;;;4839142;28;20253;-79
2021/09/19 10:31:32;;;;;;;0.00;0.00;;;15.40;53.00;;;;;;4857427;28;20190;-81
2021/09/19 10:34:00;;;;;;;0.00;0.00;;;15.40;53.40;;;;;;4854959;28;20660;-73
2021/09/19 10:36:29;;;;;;;0.00;0.00;;;15.50;53.60;;;;;;4849147;28;20229;-72
2021/09/19 10:39:10;;;;;;;0.00;0.00;;;15.40;53.50;;;;;;4853659;28;20185;-72
2021/09/19 10:41:35;;;;;;;0.00;0.00;;;15.50;53.40;;;;;;4851738;28;20186;-72
2021/09/19 10:44:16;;;;;;;0.00;0.00;;;16.40;53.60;;;;;;4850050;28;20592;-73
2021/09/19 10:46:48;;;;;;;0.00;0.00;;;16.10;53.70;;;;;;4849546;28;20182;-77
2021/09/19 10:49:17;;;;;;;0.00;0.00;;;16.40;54.00;;;;;;4853293;28;20263;-79
2021/09/19 10:52:10;;;;;;;0.03;0.03;;;16.90;54.60;;;;;;4851966;28;20201;-73
2021/09/19 10:54:45;;;;;;;0.00;0.00;;;16.90;54.50;;;;;;4852778;28;20628;-77
2021/09/19 10:57:15;;;;;;;0.10;0.10;;;16.90;54.60;;;;;;4847077;28;20583;-73
2021/09/19 11:00:13;;;;;;;0.00;0.00;;;16.70;54.60;;;;;;4850701;28;20609;-73
2021/09/19 11:02:36;;;;;;;0.00;0.00;;;16.40;54.20;;;;;;4859242;28;20267;-83
2021/09/19 11:05:28;;;;;;;0.00;0.00;;;16.10;54.20;;;;;;4855150;28;20725;-74
2021/09/19 11:08:05;;;;;;;0.00;0.00;;;15.90;54.00;;;;;;4851370;28;20182;-72
2021/09/19 11:10:30;;;;;;;0.00;0.00;;;15.80;53.90;;;;;;4853451;28;20252;-73
2021/09/19 11:12:55;;;;;;;0.00;0.00;;;15.80;54.10;;;;;;4854915;28;20248;-78
2021/09/19 11:15:26;;;;;;;0.00;0.00;;;15.80;53.90;;;;;;4851707;28;20202;-73
2021/09/19 11:17:55;;;;;;;0.07;0.07;;;15.80;53.80;;;;;;4855682;28;20225;-76
2021/09/19 11:20:31;;;;;;;0.00;0.00;;;15.60;53.90;;;;;;4851675;28;20189;-84
2021/09/19 11:22:57;;;;;;;0.00;0.00;;;15.20;53.40;;;;;;4856509;28;20605;-77
2021/09/19 11:25:21;;;;;;;0.00;0.00;;;15.20;53.40;;;;;;4848944;28;20217;-75
2021/09/19 11:27:45;;;;;;;0.00;0.00;;;15.20;53.50;;;;;;4843499;28;20232;-85
2021/09/19 11:30:09;;;;;;;0.10;0.10;;;15.10;53.40;;;;;;4857764;28;20236;-74
2021/09/19 11:32:32;;;;;;;0.00;0.00;;;;;;;;;;4851212;28;20201;-78
2021/09/19 11:34:55;;;;;;;0.00;0.00;;;15.00;53.30;;;;;;4850824;28;20240;-80
2021/09/19 11:37:22;;;;;;;0.07;0.07;;;14.80;53.20;;;;;;4850047;28;20201;-76
2021/09/19 11:39:45;;;;;;;0.00;0.00;;;;;;;;;;4850657;28;20243;-77
2021/09/19 11:42:12;;;;;;;0.00;0.00;;;14.60;52.90;;;;;;4851394;28;20597;-73
2021/09/19 11:44:36;;;;;;;0.07;0.07;;;14.60;52.80;;;;;;4848087;28;20754;-73
2021/09/19 11:46:58;;;;;;;0.03;0.03;;;14.80;52.80;;;;;;4847068;28;20246;-77
2021/09/19 11:49:21;;;;;;;0.00;0.00;;;;;;;;;;4847205;28;20193;-72
2021/09/19 11:51:44;;;;;;;0.00;0.00;;;15.10;53.10;;;;;;4849972;28;20189;-73
2021/09/19 11:54:12;;;;;;;0.00;0.00;;;15.10;53.30;;;;;;4855252;28;20186;-73
2021/09/19 11:56:36;;;;;;;0.10;0.10;;;;;;;;;;4850064;28;20702;-73
2021/09/19 11:58:59;;;;;;;0.00;0.00;;;;;;;;;;4857226;28;20213;-73
2021/09/19 12:01:26;;;;;;;0.00;0.00;;;15.30;53.10;;;;;;4855405;28;20193;-73
2021/09/19 12:03:49;;;;;;;0.00;0.00;;;15.40;53.40;;;;;;4860860;28;20178;-78
2021/09/19 12:06:11;;;;;;;0.00;0.00;;;15.70;53.40;;;;;;4850243;28;20639;-84
2021/09/19 12:08:35;;;;;;;0.00;0.00;;;15.60;53.40;;;;;;4848859;28;20257;-85
2021/09/19 12:11:00;;;;;;;0.00;0.00;;;15.80;53.70;;;;;;4846271;28;20266;-84
2021/09/19 12:13:24;;;;;;;0.00;0.00;;;15.70;53.70;;;;;;4847168;28;20194;-82
2021/09/19 12:16:09;;;;;;;0.00;0.00;;;15.70;53.70;;;;;;4853097;28;20635;-84
2021/09/19 12:18:33;;;;;;;0.00;0.00;;;15.50;53.50;;;;;;4846923;28;20179;-84
2021/09/19 12:20:57;;;;;;;0.00;0.00;;;15.60;53.40;;;;;;4851452;28;20190;-87
2021/09/19 12:23:22;;;;;;;0.00;0.00;;;;;;;;;;4843452;28;20230;-85
2021/09/19 12:25:47;;;;;;;0.00;0.00;;;17.30;54.60;;;;;;4852788;28;20245;-83
2021/09/19 12:28:11;;;;;;;0.00;0.00;;;17.30;54.60;;;;;;4847008;28;20211;-84
2021/09/19 12:30:41;;;;;;;0.00;0.00;;;17.20;54.80;;;;;;4845582;28;20186;-85
2021/09/19 12:33:04;;;;;;;0.00;0.00;;;;;;;;;;4850572;28;20581;-78
2021/09/19 12:35:29;;;;;;;0.00;0.00;;;16.80;54.70;;;;;;4848269;28;20190;-84
2021/09/19 12:37:52;;;;;;;0.00;0.00;;;16.80;54.70;;;;;;4851762;28;20208;-82
2021/09/19 12:40:17;;;;;;;0.00;0.00;;;16.50;54.50;;;;;;4848521;28;20245;-79
2021/09/19 12:42:43;;;;;;;0.00;0.00;;;16.40;54.40;;;;;;4846983;28;20202;-81
2021/09/19 12:45:10;;;;;;;0.00;0.00;;;16.20;54.20;;;;;;4846724;28;20190;-85
2021/09/19 12:47:32;;;;;;;0.00;0.00;;;;;;;;;;4846512;28;20182;-80
2021/09/19 12:49:55;;;;;;;0.00;0.00;;;16.10;54.20;;;;;;4856050;28;20651;-87
2021/09/19 12:52:18;;;;;;;0.00;0.00;;;16.00;54.00;;;;;;4851037;28;20194;-83
2021/09/19 12:54:47;;;;;;;0.00;0.00;;;16.00;54.00;;;;;;4856897;28;20262;-82
2021/09/19 12:57:10;;;;;;;0.00;0.00;;;15.80;53.90;;;;;;4849844;28;20198;-83
2021/09/19 12:59:32;;;;;;;0.10;0.10;;;15.50;53.40;;;;;;4857859;28;20190;-78
2021/09/19 13:02:07;;;;;;;0.07;0.07;;;15.20;53.30;;;;;;4848187;28;20261;-73
2021/09/19 13:04:32;;;;;;;0.00;0.00;;;15.40;53.60;;;;;;4844428;28;20190;-72
2021/09/19 13:06:58;;;;;;;0.03;0.03;;;15.30;53.60;;;;;;4857176;28;20217;-73
2021/09/19 13:09:22;;;;;;;0.00;0.00;;;;;;;;;;4847855;28;20186;-82
2021/09/19 13:11:45;;;;;;;0.00;0.00;;;;;;;;;;4863120;28;20189;-81
2021/09/19 13:14:08;;;;;;;0.10;0.10;;;15.30;53.40;;;;;;4862610;28;20190;-73
2021/09/19 13:16:32;;;;;;;0.00;0.00;;;15.60;53.40;;;;;;4857956;28;20220;-80